Red Oak, Oklahoma
Current Conditions -  °F | °C
As of 4:55 PM on Friday 31 Oct 2014 (Local Time) from KGZL Reporting Station
Clear Clear  
Wind Chill: 55°   Ceiling: Unl
Heat Index: 55°   Visibility: 10mi
Dew Point: 25°   Wind: 12mph
Humidity: 31%   Direction: 350°N
Pressure: 30.36"   Gusts: 20mph
Location:  34.95°N, 95.08°W
Report Text: KGZL 312155Z AUTO 35010G17KT 10SM CLR 13/M04 A3036 RMK AO2
Loading
Personal Weather Stations






























Interactive Weather Map
Tropical Storm Tracking
New forecast layout! Learn more

10-Day Weather Forecast

Advertisements
Track Severe Weather on mobile